sensor_id;sensor_type;location;lat;lon;timestamp;temperature;humidity
18456;DHT22;9357;49.900;8.208;2023-11-22T00:00:53;5.40;99.90
18456;DHT22;9357;49.900;8.208;2023-11-22T00:02:24;5.30;99.90
18456;DHT22;9357;49.900;8.208;2023-11-22T00:04:00;5.30;99.90
18456;DHT22;9357;49.900;8.208;2023-11-22T00:05:33;5.20;99.90
18456;DHT22;9357;49.900;8.208;2023-11-22T00:07:05;5.20;99.90
18456;DHT22;9357;49.900;8.208;2023-11-22T00:08:38;5.20;99.90
18456;DHT22;9357;49.900;8.208;2023-11-22T00:10:10;5.10;99.90
18456;DHT22;9357;49.900;8.208;2023-11-22T00:11:42;5.10;99.90
18456;DHT22;9357;49.900;8.208;2023-11-22T00:13:16;5.10;99.90
18456;DHT22;9357;49.900;8.208;2023-11-22T00:14:48;5.10;99.90
18456;DHT22;9357;49.900;8.208;2023-11-22T00:16:21;5.10;99.90
18456;DHT22;9357;49.900;8.208;2023-11-22T00:17:53;5.10;99.90
18456;DHT22;9357;49.900;8.208;2023-11-22T00:19:26;5.00;99.90
18456;DHT22;9357;49.900;8.208;2023-11-22T00:20:58;5.00;99.90
18456;DHT22;9357;49.900;8.208;2023-11-22T00:22:31;5.10;99.90
18456;DHT22;9357;49.900;8.208;2023-11-22T00:24:04;5.10;99.90
18456;DHT22;9357;49.900;8.208;2023-11-22T00:25:37;5.10;99.90
18456;DHT22;9357;49.900;8.208;2023-11-22T00:27:09;5.10;99.90
18456;DHT22;9357;49.900;8.208;2023-11-22T00:28:43;5.00;99.90
18456;DHT22;9357;49.900;8.208;2023-11-22T00:30:15;5.00;99.90
18456;DHT22;9357;49.900;8.208;2023-11-22T00:31:48;5.00;99.90
18456;DHT22;9357;49.900;8.208;2023-11-22T00:33:20;5.00;99.90
18456;DHT22;9357;49.900;8.208;2023-11-22T00:34:53;5.00;99.90
18456;DHT22;9357;49.900;8.208;2023-11-22T00:36:24;5.10;99.90
18456;DHT22;9357;49.900;8.208;2023-11-22T00:37:57;5.00;99.90
18456;DHT22;9357;49.900;8.208;2023-11-22T00:39:29;5.10;99.90
18456;DHT22;9357;49.900;8.208;2023-11-22T00:41:02;5.00;99.90
18456;DHT22;9357;49.900;8.208;2023-11-22T00:42:34;5.10;99.90
18456;DHT22;9357;49.900;8.208;2023-11-22T00:44:08;5.10;99.90
18456;DHT22;9357;49.900;8.208;2023-11-22T00:45:41;5.10;99.90
18456;DHT22;9357;49.900;8.208;2023-11-22T00:47:13;5.10;99.90
18456;DHT22;9357;49.900;8.208;2023-11-22T00:48:48;5.10;99.90
18456;DHT22;9357;49.900;8.208;2023-11-22T00:50:19;5.10;99.90
18456;DHT22;9357;49.900;8.208;2023-11-22T00:51:52;5.10;99.90
18456;DHT22;9357;49.900;8.208;2023-11-22T00:53:24;5.10;99.90
18456;DHT22;9357;49.900;8.208;2023-11-22T00:54:57;5.10;99.90
18456;DHT22;9357;49.900;8.208;2023-11-22T00:56:29;5.10;99.90
18456;DHT22;9357;49.900;8.208;2023-11-22T00:58:02;5.10;99.90
18456;DHT22;9357;49.900;8.208;2023-11-22T00:59:37;5.10;99.90
18456;DHT22;9357;49.900;8.208;2023-11-22T01:01:10;5.10;99.90
18456;DHT22;9357;49.900;8.208;2023-11-22T01:02:43;5.10;99.90
18456;DHT22;9357;49.900;8.208;2023-11-22T01:04:15;5.00;99.90
18456;DHT22;9357;49.900;8.208;2023-11-22T01:05:47;5.00;99.90
18456;DHT22;9357;49.900;8.208;2023-11-22T01:07:20;5.00;99.90
18456;DHT22;9357;49.900;8.208;2023-11-22T01:08:52;5.00;99.90
18456;DHT22;9357;49.900;8.208;2023-11-22T01:10:24;5.00;99.90
18456;DHT22;9357;49.900;8.208;2023-11-22T01:11:56;4.90;99.90
18456;DHT22;9357;49.900;8.208;2023-11-22T01:13:29;4.90;99.90
18456;DHT22;9357;49.900;8.208;2023-11-22T01:15:03;4.80;99.90
18456;DHT22;9357;49.900;8.208;2023-11-22T01:16:37;4.80;99.90
18456;DHT22;9357;49.900;8.208;2023-11-22T01:18:09;4.70;99.90
18456;DHT22;9357;49.900;8.208;2023-11-22T01:19:41;4.70;99.90
18456;DHT22;9357;49.900;8.208;2023-11-22T01:21:13;4.70;99.90
18456;DHT22;9357;49.900;8.208;2023-11-22T01:22:46;4.60;99.90
18456;DHT22;9357;49.900;8.208;2023-11-22T01:24:18;4.60;99.90
18456;DHT22;9357;49.900;8.208;2023-11-22T01:25:51;4.60;99.90
18456;DHT22;9357;49.900;8.208;2023-11-22T01:27:23;4.60;99.90
18456;DHT22;9357;49.900;8.208;2023-11-22T01:28:56;4.50;99.90
18456;DHT22;9357;49.900;8.208;2023-11-22T01:30:29;4.50;99.90
18456;DHT22;9357;49.900;8.208;2023-11-22T01:32:02;4.50;99.90
18456;DHT22;9357;49.900;8.208;2023-11-22T01:33:34;4.40;99.90
18456;DHT22;9357;49.900;8.208;2023-11-22T01:35:08;4.40;99.90
18456;DHT22;9357;49.900;8.208;2023-11-22T01:36:42;4.40;99.90
18456;DHT22;9357;49.900;8.208;2023-11-22T01:38:14;4.40;99.90
18456;DHT22;9357;49.900;8.208;2023-11-22T01:39:47;4.30;99.90
18456;DHT22;9357;49.900;8.208;2023-11-22T01:41:20;4.30;99.90
18456;DHT22;9357;49.900;8.208;2023-11-22T01:42:53;4.30;99.90
18456;DHT22;9357;49.900;8.208;2023-11-22T01:44:26;4.30;99.90
18456;DHT22;9357;49.900;8.208;2023-11-22T01:46:00;4.30;99.90
18456;DHT22;9357;49.900;8.208;2023-11-22T01:47:33;4.30;99.90
18456;DHT22;9357;49.900;8.208;2023-11-22T01:49:06;4.30;99.90
18456;DHT22;9357;49.900;8.208;2023-11-22T01:50:42;4.30;99.90
18456;DHT22;9357;49.900;8.208;2023-11-22T01:52:14;4.20;99.90
18456;DHT22;9357;49.900;8.208;2023-11-22T01:53:47;4.20;99.90
18456;DHT22;9357;49.900;8.208;2023-11-22T01:55:20;4.20;99.90
18456;DHT22;9357;49.900;8.208;2023-11-22T01:56:53;4.20;99.90
18456;DHT22;9357;49.900;8.208;2023-11-22T01:58:26;4.20;99.90
18456;DHT22;9357;49.900;8.208;2023-11-22T01:59:59;4.20;99.90
18456;DHT22;9357;49.900;8.208;2023-11-22T02:01:34;4.20;99.90
18456;DHT22;9357;49.900;8.208;2023-11-22T02:03:08;4.20;99.90
18456;DHT22;9357;49.900;8.208;2023-11-22T02:04:41;4.20;99.90
18456;DHT22;9357;49.900;8.208;2023-11-22T02:06:15;4.20;99.90
18456;DHT22;9357;49.900;8.208;2023-11-22T02:07:47;4.20;99.90
18456;DHT22;9357;49.900;8.208;2023-11-22T02:09:20;4.20;99.90
18456;DHT22;9357;49.900;8.208;2023-11-22T02:10:57;4.20;99.90
18456;DHT22;9357;49.900;8.208;2023-11-22T02:12:33;4.20;99.90
18456;DHT22;9357;49.900;8.208;2023-11-22T02:14:05;4.20;99.90
18456;DHT22;9357;49.900;8.208;2023-11-22T02:15:38;4.20;99.90
18456;DHT22;9357;49.900;8.208;2023-11-22T02:17:12;4.20;99.90
18456;DHT22;9357;49.900;8.208;2023-11-22T02:18:44;4.20;99.90
18456;DHT22;9357;49.900;8.208;2023-11-22T02:20:17;4.20;99.90
18456;DHT22;9357;49.900;8.208;2023-11-22T02:21:49;4.10;99.90
18456;DHT22;9357;49.900;8.208;2023-11-22T02:23:24;4.20;99.90
18456;DHT22;9357;49.900;8.208;2023-11-22T02:24:56;4.10;99.90
18456;DHT22;9357;49.900;8.208;2023-11-22T02:26:28;4.20;99.90
18456;DHT22;9357;49.900;8.208;2023-11-22T02:28:01;4.20;99.90
18456;DHT22;9357;49.900;8.208;2023-11-22T02:29:34;4.10;99.90
18456;DHT22;9357;49.900;8.208;2023-11-22T02:31:06;4.10;99.90
18456;DHT22;9357;49.900;8.208;2023-11-22T02:32:40;4.10;99.90
18456;DHT22;9357;49.900;8.208;2023-11-22T02:34:11;4.10;99.90
18456;DHT22;9357;49.900;8.208;2023-11-22T02:35:44;4.10;99.90
18456;DHT22;9357;49.900;8.208;2023-11-22T02:37:16;4.00;99.90
18456;DHT22;9357;49.900;8.208;2023-11-22T02:38:50;4.00;99.90
18456;DHT22;9357;49.900;8.208;2023-11-22T02:40:22;4.00;99.90
18456;DHT22;9357;49.900;8.208;2023-11-22T02:41:55;4.00;99.90
18456;DHT22;9357;49.900;8.208;2023-11-22T02:43:27;4.00;99.90
18456;DHT22;9357;49.900;8.208;2023-11-22T02:45:00;4.00;99.90
18456;DHT22;9357;49.900;8.208;2023-11-22T02:46:32;4.00;99.90
18456;DHT22;9357;49.900;8.208;2023-11-22T02:48:05;4.00;99.90
18456;DHT22;9357;49.900;8.208;2023-11-22T02:49:40;4.00;99.90
18456;DHT22;9357;49.900;8.208;2023-11-22T02:51:13;4.00;99.90
18456;DHT22;9357;49.900;8.208;2023-11-22T02:52:45;3.90;99.90
18456;DHT22;9357;49.900;8.208;2023-11-22T02:54:19;3.90;99.90
18456;DHT22;9357;49.900;8.208;2023-11-22T02:55:51;3.90;99.90
18456;DHT22;9357;49.900;8.208;2023-11-22T02:57:25;3.90;99.90
18456;DHT22;9357;49.900;8.208;2023-11-22T02:58:57;3.90;99.90
18456;DHT22;9357;49.900;8.208;2023-11-22T03:00:30;3.90;99.90
18456;DHT22;9357;49.900;8.208;2023-11-22T03:02:02;3.80;99.90
18456;DHT22;9357;49.900;8.208;2023-11-22T03:03:35;3.80;99.90
18456;DHT22;9357;49.900;8.208;2023-11-22T03:05:08;3.80;99.90
18456;DHT22;9357;49.900;8.208;2023-11-22T03:06:41;3.80;99.90
18456;DHT22;9357;49.900;8.208;2023-11-22T03:08:12;3.80;99.90
18456;DHT22;9357;49.900;8.208;2023-11-22T03:09:48;3.80;99.90
18456;DHT22;9357;49.900;8.208;2023-11-22T03:11:20;3.70;99.90
18456;DHT22;9357;49.900;8.208;2023-11-22T03:12:54;3.70;99.90
18456;DHT22;9357;49.900;8.208;2023-11-22T03:14:25;3.70;99.90
18456;DHT22;9357;49.900;8.208;2023-11-22T03:15:59;3.60;99.90
18456;DHT22;9357;49.900;8.208;2023-11-22T03:17:31;3.60;99.90
18456;DHT22;9357;49.900;8.208;2023-11-22T03:19:05;3.60;99.90
18456;DHT22;9357;49.900;8.208;2023-11-22T03:20:39;3.60;99.90
18456;DHT22;9357;49.900;8.208;2023-11-22T03:22:14;3.60;99.90
18456;DHT22;9357;49.900;8.208;2023-11-22T03:23:45;3.60;99.90
18456;DHT22;9357;49.900;8.208;2023-11-22T03:25:20;3.60;99.90
18456;DHT22;9357;49.900;8.208;2023-11-22T03:26:52;3.50;99.90
18456;DHT22;9357;49.900;8.208;2023-11-22T03:28:24;3.50;99.90
18456;DHT22;9357;49.900;8.208;2023-11-22T03:29:57;3.50;99.90
18456;DHT22;9357;49.900;8.208;2023-11-22T03:31:28;3.50;99.90
18456;DHT22;9357;49.900;8.208;2023-11-22T03:33:01;3.50;99.90
18456;DHT22;9357;49.900;8.208;2023-11-22T03:34:34;3.40;99.90
18456;DHT22;9357;49.900;8.208;2023-11-22T03:36:07;3.40;99.90
18456;DHT22;9357;49.900;8.208;2023-11-22T03:37:39;3.40;99.90
18456;DHT22;9357;49.900;8.208;2023-11-22T03:39:12;3.50;99.90
18456;DHT22;9357;49.900;8.208;2023-11-22T03:40:47;3.40;99.90
18456;DHT22;9357;49.900;8.208;2023-11-22T03:42:20;3.40;99.90
18456;DHT22;9357;49.900;8.208;2023-11-22T03:43:52;3.40;99.90
18456;DHT22;9357;49.900;8.208;2023-11-22T03:45:25;3.40;99.90
18456;DHT22;9357;49.900;8.208;2023-11-22T03:46:57;3.40;99.90
18456;DHT22;9357;49.900;8.208;2023-11-22T03:48:30;3.30;99.90
18456;DHT22;9357;49.900;8.208;2023-11-22T03:50:01;3.40;99.90
18456;DHT22;9357;49.900;8.208;2023-11-22T03:51:34;3.30;99.90
18456;DHT22;9357;49.900;8.208;2023-11-22T03:53:07;3.40;99.90
18456;DHT22;9357;49.900;8.208;2023-11-22T03:54:40;3.40;99.90
18456;DHT22;9357;49.900;8.208;2023-11-22T03:56:13;3.40;99.90
18456;DHT22;9357;49.900;8.208;2023-11-22T03:57:45;3.40;99.90
18456;DHT22;9357;49.900;8.208;2023-11-22T03:59:17;3.40;99.90
18456;DHT22;9357;49.900;8.208;2023-11-22T04:00:51;3.30;99.90
18456;DHT22;9357;49.900;8.208;2023-11-22T04:02:24;3.30;99.90
18456;DHT22;9357;49.900;8.208;2023-11-22T04:03:57;3.30;99.90
18456;DHT22;9357;49.900;8.208;2023-11-22T04:05:29;3.30;99.90
18456;DHT22;9357;49.900;8.208;2023-11-22T04:07:02;3.30;99.90
18456;DHT22;9357;49.900;8.208;2023-11-22T04:08:33;3.30;99.90
18456;DHT22;9357;49.900;8.208;2023-11-22T04:10:07;3.30;99.90
18456;DHT22;9357;49.900;8.208;2023-11-22T04:11:41;3.20;99.90
18456;DHT22;9357;49.900;8.208;2023-11-22T04:13:13;3.20;99.90
18456;DHT22;9357;49.900;8.208;2023-11-22T04:14:46;3.20;99.90
18456;DHT22;9357;49.900;8.208;2023-11-22T04:16:18;3.20;99.90
18456;DHT22;9357;49.900;8.208;2023-11-22T04:17:51;3.20;99.90
18456;DHT22;9357;49.900;8.208;2023-11-22T04:19:26;3.20;99.90
18456;DHT22;9357;49.900;8.208;2023-11-22T04:20:59;3.10;99.90
18456;DHT22;9357;49.900;8.208;2023-11-22T04:22:32;3.10;99.90
18456;DHT22;9357;49.900;8.208;2023-11-22T04:24:06;3.10;99.90
18456;DHT22;9357;49.900;8.208;2023-11-22T04:25:38;3.10;99.90
18456;DHT22;9357;49.900;8.208;2023-11-22T04:27:14;3.10;99.90
18456;DHT22;9357;49.900;8.208;2023-11-22T04:28:46;3.10;99.90
18456;DHT22;9357;49.900;8.208;2023-11-22T04:30:19;3.10;99.90
18456;DHT22;9357;49.900;8.208;2023-11-22T04:31:50;3.10;99.90
18456;DHT22;9357;49.900;8.208;2023-11-22T04:33:24;3.10;99.90
18456;DHT22;9357;49.900;8.208;2023-11-22T04:34:56;3.10;99.90
18456;DHT22;9357;49.900;8.208;2023-11-22T04:36:30;3.10;99.90
18456;DHT22;9357;49.900;8.208;2023-11-22T04:38:03;3.10;99.90
18456;DHT22;9357;49.900;8.208;2023-11-22T04:39:35;3.10;99.90
18456;DHT22;9357;49.900;8.208;2023-11-22T04:41:08;3.10;99.90
18456;DHT22;9357;49.900;8.208;2023-11-22T04:42:41;3.10;99.90
18456;DHT22;9357;49.900;8.208;2023-11-22T04:44:13;3.10;99.90
18456;DHT22;9357;49.900;8.208;2023-11-22T04:45:45;3.00;99.90
18456;DHT22;9357;49.900;8.208;2023-11-22T04:47:18;3.00;99.90
18456;DHT22;9357;49.900;8.208;2023-11-22T04:48:51;3.00;99.90
18456;DHT22;9357;49.900;8.208;2023-11-22T04:50:24;3.00;99.90
18456;DHT22;9357;49.900;8.208;2023-11-22T04:51:55;3.00;99.90
18456;DHT22;9357;49.900;8.208;2023-11-22T04:53:28;3.00;99.90
18456;DHT22;9357;49.900;8.208;2023-11-22T04:55:00;3.00;99.90
18456;DHT22;9357;49.900;8.208;2023-11-22T04:56:33;3.00;99.90
18456;DHT22;9357;49.900;8.208;2023-11-22T04:58:06;2.90;99.90
18456;DHT22;9357;49.900;8.208;2023-11-22T04:59:39;2.90;99.90
18456;DHT22;9357;49.900;8.208;2023-11-22T05:01:12;2.90;99.90
18456;DHT22;9357;49.900;8.208;2023-11-22T05:02:49;2.90;99.90
18456;DHT22;9357;49.900;8.208;2023-11-22T05:04:21;2.80;99.90
18456;DHT22;9357;49.900;8.208;2023-11-22T05:05:53;2.90;99.90
18456;DHT22;9357;49.900;8.208;2023-11-22T05:07:25;2.80;99.90
18456;DHT22;9357;49.900;8.208;2023-11-22T05:08:58;2.80;99.90
18456;DHT22;9357;49.900;8.208;2023-11-22T05:10:30;2.90;99.90
18456;DHT22;9357;49.900;8.208;2023-11-22T05:12:03;2.90;99.90
18456;DHT22;9357;49.900;8.208;2023-11-22T05:13:36;2.80;99.90
18456;DHT22;9357;49.900;8.208;2023-11-22T05:15:09;2.80;99.90
18456;DHT22;9357;49.900;8.208;2023-11-22T05:16:41;2.80;99.90
18456;DHT22;9357;49.900;8.208;2023-11-22T05:18:14;2.80;99.90
18456;DHT22;9357;49.900;8.208;2023-11-22T05:19:46;2.80;99.90
18456;DHT22;9357;49.900;8.208;2023-11-22T05:21:19;2.90;99.90
18456;DHT22;9357;49.900;8.208;2023-11-22T05:22:50;2.80;99.90
18456;DHT22;9357;49.900;8.208;2023-11-22T05:24:23;2.80;99.90
18456;DHT22;9357;49.900;8.208;2023-11-22T05:25:55;2.80;99.90
18456;DHT22;9357;49.900;8.208;2023-11-22T05:27:28;2.80;99.90
18456;DHT22;9357;49.900;8.208;2023-11-22T05:29:01;2.80;99.90
18456;DHT22;9357;49.900;8.208;2023-11-22T05:30:36;2.80;99.90
18456;DHT22;9357;49.900;8.208;2023-11-22T05:32:09;2.80;99.90
18456;DHT22;9357;49.900;8.208;2023-11-22T05:33:41;2.80;99.90
18456;DHT22;9357;49.900;8.208;2023-11-22T05:35:14;2.80;99.90
18456;DHT22;9357;49.900;8.208;2023-11-22T05:36:46;2.80;99.90
18456;DHT22;9357;49.900;8.208;2023-11-22T05:38:20;2.80;99.90
18456;DHT22;9357;49.900;8.208;2023-11-22T05:39:53;2.80;99.90
18456;DHT22;9357;49.900;8.208;2023-11-22T05:41:25;2.80;99.90
18456;DHT22;9357;49.900;8.208;2023-11-22T05:42:58;2.80;99.90
18456;DHT22;9357;49.900;8.208;2023-11-22T05:44:32;2.90;99.90
18456;DHT22;9357;49.900;8.208;2023-11-22T05:46:04;2.80;99.90
18456;DHT22;9357;49.900;8.208;2023-11-22T05:47:37;2.80;99.90
18456;DHT22;9357;49.900;8.208;2023-11-22T05:49:09;2.80;99.90
18456;DHT22;9357;49.900;8.208;2023-11-22T05:50:43;2.80;99.90
18456;DHT22;9357;49.900;8.208;2023-11-22T05:52:17;2.80;99.90
18456;DHT22;9357;49.900;8.208;2023-11-22T05:53:50;2.80;99.90
18456;DHT22;9357;49.900;8.208;2023-11-22T05:55:22;2.80;99.90
18456;DHT22;9357;49.900;8.208;2023-11-22T05:56:55;2.80;99.90
18456;DHT22;9357;49.900;8.208;2023-11-22T05:58:27;2.80;99.90
18456;DHT22;9357;49.900;8.208;2023-11-22T06:00:01;2.80;99.90
18456;DHT22;9357;49.900;8.208;2023-11-22T06:01:33;2.70;99.90
18456;DHT22;9357;49.900;8.208;2023-11-22T06:03:05;2.70;99.90
18456;DHT22;9357;49.900;8.208;2023-11-22T06:04:38;2.70;99.90
18456;DHT22;9357;49.900;8.208;2023-11-22T06:06:13;2.70;99.90
18456;DHT22;9357;49.900;8.208;2023-11-22T06:07:46;2.70;99.90
18456;DHT22;9357;49.900;8.208;2023-11-22T06:09:18;2.70;99.90
18456;DHT22;9357;49.900;8.208;2023-11-22T06:10:51;2.70;99.90
18456;DHT22;9357;49.900;8.208;2023-11-22T06:12:24;2.60;99.90
18456;DHT22;9357;49.900;8.208;2023-11-22T06:13:57;2.60;99.90
18456;DHT22;9357;49.900;8.208;2023-11-22T06:15:30;2.60;99.90
18456;DHT22;9357;49.900;8.208;2023-11-22T06:17:04;2.60;99.90
18456;DHT22;9357;49.900;8.208;2023-11-22T06:18:36;2.60;99.90
18456;DHT22;9357;49.900;8.208;2023-11-22T06:20:12;2.60;99.90
18456;DHT22;9357;49.900;8.208;2023-11-22T06:21:44;2.60;99.90
18456;DHT22;9357;49.900;8.208;2023-11-22T06:23:17;2.60;99.90
18456;DHT22;9357;49.900;8.208;2023-11-22T06:24:49;2.50;99.90
18456;DHT22;9357;49.900;8.208;2023-11-22T06:26:22;2.50;99.90
18456;DHT22;9357;49.900;8.208;2023-11-22T06:27:53;2.50;99.90
18456;DHT22;9357;49.900;8.208;2023-11-22T06:29:30;2.50;99.90
18456;DHT22;9357;49.900;8.208;2023-11-22T06:31:04;2.50;99.90
18456;DHT22;9357;49.900;8.208;2023-11-22T06:32:36;2.50;99.90
18456;DHT22;9357;49.900;8.208;2023-11-22T06:34:09;2.40;99.90
18456;DHT22;9357;49.900;8.208;2023-11-22T06:35:40;2.40;99.90
18456;DHT22;9357;49.900;8.208;2023-11-22T06:37:14;2.40;99.90
18456;DHT22;9357;49.900;8.208;2023-11-22T06:38:45;2.40;99.90
18456;DHT22;9357;49.900;8.208;2023-11-22T06:40:18;2.40;99.90
18456;DHT22;9357;49.900;8.208;2023-11-22T06:41:52;2.40;99.90
18456;DHT22;9357;49.900;8.208;2023-11-22T06:43:24;2.30;99.90
18456;DHT22;9357;49.900;8.208;2023-11-22T06:44:56;2.30;99.90
18456;DHT22;9357;49.900;8.208;2023-11-22T06:46:33;2.20;99.90
18456;DHT22;9357;49.900;8.208;2023-11-22T06:48:06;2.20;99.90
18456;DHT22;9357;49.900;8.208;2023-11-22T06:49:38;2.20;99.90
18456;DHT22;9357;49.900;8.208;2023-11-22T06:51:11;2.10;99.90
18456;DHT22;9357;49.900;8.208;2023-11-22T06:52:43;2.20;99.90
18456;DHT22;9357;49.900;8.208;2023-11-22T06:54:19;2.10;99.90
18456;DHT22;9357;49.900;8.208;2023-11-22T06:55:50;2.10;99.90
18456;DHT22;9357;49.900;8.208;2023-11-22T06:57:23;2.10;99.90
18456;DHT22;9357;49.900;8.208;2023-11-22T06:59:00;2.10;99.90
18456;DHT22;9357;49.900;8.208;2023-11-22T07:00:33;2.00;99.90
18456;DHT22;9357;49.900;8.208;2023-11-22T07:02:06;2.00;99.90
18456;DHT22;9357;49.900;8.208;2023-11-22T07:03:39;2.00;99.90
18456;DHT22;9357;49.900;8.208;2023-11-22T07:05:12;1.90;99.90
18456;DHT22;9357;49.900;8.208;2023-11-22T07:06:45;1.90;99.90
18456;DHT22;9357;49.900;8.208;2023-11-22T07:08:17;1.90;99.90
18456;DHT22;9357;49.900;8.208;2023-11-22T07:09:50;1.90;99.90
18456;DHT22;9357;49.900;8.208;2023-11-22T07:11:22;1.80;99.90
18456;DHT22;9357;49.900;8.208;2023-11-22T07:12:56;1.80;99.90
18456;DHT22;9357;49.900;8.208;2023-11-22T07:14:27;1.80;99.90
18456;DHT22;9357;49.900;8.208;2023-11-22T07:16:00;1.80;99.90
18456;DHT22;9357;49.900;8.208;2023-11-22T07:17:33;1.80;99.90
18456;DHT22;9357;49.900;8.208;2023-11-22T07:19:06;1.80;99.90
18456;DHT22;9357;49.900;8.208;2023-11-22T07:20:38;1.80;99.90
18456;DHT22;9357;49.900;8.208;2023-11-22T07:22:11;1.80;99.90
18456;DHT22;9357;49.900;8.208;2023-11-22T07:23:47;1.80;99.90
18456;DHT22;9357;49.900;8.208;2023-11-22T07:25:23;1.80;99.90
18456;DHT22;9357;49.900;8.208;2023-11-22T07:26:56;1.80;99.90
18456;DHT22;9357;49.900;8.208;2023-11-22T07:28:29;1.80;99.90
18456;DHT22;9357;49.900;8.208;2023-11-22T07:30:02;1.70;99.90
18456;DHT22;9357;49.900;8.208;2023-11-22T07:31:35;1.70;99.90
18456;DHT22;9357;49.900;8.208;2023-11-22T07:33:09;1.70;99.90
18456;DHT22;9357;49.900;8.208;2023-11-22T07:34:42;1.70;99.90
18456;DHT22;9357;49.900;8.208;2023-11-22T07:36:15;1.70;99.90
18456;DHT22;9357;49.900;8.208;2023-11-22T07:37:47;1.70;99.90
18456;DHT22;9357;49.900;8.208;2023-11-22T07:39:20;1.70;99.90
18456;DHT22;9357;49.900;8.208;2023-11-22T07:40:58;1.70;99.90
18456;DHT22;9357;49.900;8.208;2023-11-22T07:42:31;1.70;99.90
18456;DHT22;9357;49.900;8.208;2023-11-22T07:44:03;1.70;99.90
18456;DHT22;9357;49.900;8.208;2023-11-22T07:45:36;1.60;99.90
18456;DHT22;9357;49.900;8.208;2023-11-22T07:47:08;1.60;99.90
18456;DHT22;9357;49.900;8.208;2023-11-22T07:48:43;1.60;99.90
18456;DHT22;9357;49.900;8.208;2023-11-22T07:50:16;1.60;99.90
18456;DHT22;9357;49.900;8.208;2023-11-22T07:51:49;1.60;99.90
18456;DHT22;9357;49.900;8.208;2023-11-22T07:53:23;1.60;99.90
18456;DHT22;9357;49.900;8.208;2023-11-22T07:55:00;1.60;99.90
18456;DHT22;9357;49.900;8.208;2023-11-22T07:56:32;1.60;99.90
18456;DHT22;9357;49.900;8.208;2023-11-22T07:58:05;1.60;99.90
18456;DHT22;9357;49.900;8.208;2023-11-22T07:59:38;1.60;99.90
18456;DHT22;9357;49.900;8.208;2023-11-22T08:01:10;1.60;99.90
18456;DHT22;9357;49.900;8.208;2023-11-22T08:02:45;1.70;99.90
18456;DHT22;9357;49.900;8.208;2023-11-22T08:04:20;1.70;99.90
18456;DHT22;9357;49.900;8.208;2023-11-22T08:05:51;1.70;99.90
18456;DHT22;9357;49.900;8.208;2023-11-22T08:07:25;1.70;99.90
18456;DHT22;9357;49.900;8.208;2023-11-22T08:08:58;1.60;99.90
18456;DHT22;9357;49.900;8.208;2023-11-22T08:10:32;1.70;99.90
18456;DHT22;9357;49.900;8.208;2023-11-22T08:12:06;1.70;99.90
18456;DHT22;9357;49.900;8.208;2023-11-22T08:13:39;1.60;99.90
18456;DHT22;9357;49.900;8.208;2023-11-22T08:15:11;1.70;99.90
18456;DHT22;9357;49.900;8.208;2023-11-22T08:16:45;1.70;99.90
18456;DHT22;9357;49.900;8.208;2023-11-22T08:18:18;1.70;99.90
18456;DHT22;9357;49.900;8.208;2023-11-22T08:19:51;1.70;99.90
18456;DHT22;9357;49.900;8.208;2023-11-22T08:21:24;1.70;99.90
18456;DHT22;9357;49.900;8.208;2023-11-22T08:22:56;1.80;99.90
18456;DHT22;9357;49.900;8.208;2023-11-22T08:24:29;1.70;99.90
18456;DHT22;9357;49.900;8.208;2023-11-22T08:26:01;1.80;99.90
18456;DHT22;9357;49.900;8.208;2023-11-22T08:27:34;1.80;99.90
18456;DHT22;9357;49.900;8.208;2023-11-22T08:29:06;1.80;99.90
18456;DHT22;9357;49.900;8.208;2023-11-22T08:30:39;1.80;99.90
18456;DHT22;9357;49.900;8.208;2023-11-22T08:32:12;1.80;99.90
18456;DHT22;9357;49.900;8.208;2023-11-22T08:33:45;1.90;99.90
18456;DHT22;9357;49.900;8.208;2023-11-22T08:35:18;1.80;99.90
18456;DHT22;9357;49.900;8.208;2023-11-22T08:36:51;1.90;99.90
18456;DHT22;9357;49.900;8.208;2023-11-22T08:38:26;1.90;99.90
18456;DHT22;9357;49.900;8.208;2023-11-22T08:39:58;1.90;99.90
18456;DHT22;9357;49.900;8.208;2023-11-22T08:41:31;1.90;99.90
18456;DHT22;9357;49.900;8.208;2023-11-22T08:43:03;1.90;99.90
18456;DHT22;9357;49.900;8.208;2023-11-22T08:44:36;2.00;99.90
18456;DHT22;9357;49.900;8.208;2023-11-22T08:46:08;2.00;99.90
18456;DHT22;9357;49.900;8.208;2023-11-22T08:47:45;2.00;99.90
18456;DHT22;9357;49.900;8.208;2023-11-22T08:49:18;2.00;99.90
18456;DHT22;9357;49.900;8.208;2023-11-22T08:50:53;2.00;99.90
18456;DHT22;9357;49.900;8.208;2023-11-22T08:52:27;2.00;99.90
18456;DHT22;9357;49.900;8.208;2023-11-22T08:54:02;2.00;99.90
18456;DHT22;9357;49.900;8.208;2023-11-22T08:55:34;2.00;99.90
18456;DHT22;9357;49.900;8.208;2023-11-22T08:57:07;2.00;99.90
18456;DHT22;9357;49.900;8.208;2023-11-22T08:58:39;2.00;99.90
18456;DHT22;9357;49.900;8.208;2023-11-22T09:00:12;2.00;99.90
18456;DHT22;9357;49.900;8.208;2023-11-22T09:01:46;2.00;99.90
18456;DHT22;9357;49.900;8.208;2023-11-22T09:03:18;2.00;99.90
18456;DHT22;9357;49.900;8.208;2023-11-22T09:04:51;2.00;99.90
18456;DHT22;9357;49.900;8.208;2023-11-22T09:06:25;2.00;99.90
18456;DHT22;9357;49.900;8.208;2023-11-22T09:07:58;2.00;99.90
18456;DHT22;9357;49.900;8.208;2023-11-22T09:09:36;2.00;99.90
18456;DHT22;9357;49.900;8.208;2023-11-22T09:11:09;2.00;99.90
18456;DHT22;9357;49.900;8.208;2023-11-22T09:12:42;2.00;99.90
18456;DHT22;9357;49.900;8.208;2023-11-22T09:14:15;2.10;99.90
18456;DHT22;9357;49.900;8.208;2023-11-22T09:15:48;2.10;99.90
18456;DHT22;9357;49.900;8.208;2023-11-22T09:17:20;2.10;99.90
18456;DHT22;9357;49.900;8.208;2023-11-22T09:18:52;2.10;99.90
18456;DHT22;9357;49.900;8.208;2023-11-22T09:20:26;2.10;99.90
18456;DHT22;9357;49.900;8.208;2023-11-22T09:21:59;2.10;99.90
18456;DHT22;9357;49.900;8.208;2023-11-22T09:23:32;2.20;99.90
18456;DHT22;9357;49.900;8.208;2023-11-22T09:25:05;2.20;99.90
18456;DHT22;9357;49.900;8.208;2023-11-22T09:26:40;2.10;99.90
18456;DHT22;9357;49.900;8.208;2023-11-22T09:28:13;2.10;99.90
18456;DHT22;9357;49.900;8.208;2023-11-22T09:29:47;2.10;99.90
18456;DHT22;9357;49.900;8.208;2023-11-22T09:31:20;2.10;99.90
18456;DHT22;9357;49.900;8.208;2023-11-22T09:32:52;2.10;99.90
18456;DHT22;9357;49.900;8.208;2023-11-22T09:34:25;2.10;99.90
18456;DHT22;9357;49.900;8.208;2023-11-22T09:35:58;2.10;99.90
18456;DHT22;9357;49.900;8.208;2023-11-22T09:37:31;2.10;99.90
18456;DHT22;9357;49.900;8.208;2023-11-22T09:39:04;2.20;99.90
18456;DHT22;9357;49.900;8.208;2023-11-22T09:40:42;2.10;99.90
18456;DHT22;9357;49.900;8.208;2023-11-22T09:42:14;2.10;99.90
18456;DHT22;9357;49.900;8.208;2023-11-22T09:43:46;2.20;99.90
18456;DHT22;9357;49.900;8.208;2023-11-22T09:45:21;2.10;99.90
18456;DHT22;9357;49.900;8.208;2023-11-22T09:46:55;2.10;99.90
18456;DHT22;9357;49.900;8.208;2023-11-22T09:48:31;2.10;99.90
18456;DHT22;9357;49.900;8.208;2023-11-22T09:50:05;2.20;99.90
18456;DHT22;9357;49.900;8.208;2023-11-22T09:51:42;2.10;99.90
18456;DHT22;9357;49.900;8.208;2023-11-22T09:53:23;2.20;99.90
18456;DHT22;9357;49.900;8.208;2023-11-22T09:54:58;2.20;99.90
18456;DHT22;9357;49.900;8.208;2023-11-22T09:56:30;2.20;99.90
18456;DHT22;9357;49.900;8.208;2023-11-22T09:58:04;2.20;99.90
18456;DHT22;9357;49.900;8.208;2023-11-22T09:59:40;2.20;99.90
18456;DHT22;9357;49.900;8.208;2023-11-22T10:01:14;2.30;99.90
18456;DHT22;9357;49.900;8.208;2023-11-22T10:02:46;2.30;99.90
18456;DHT22;9357;49.900;8.208;2023-11-22T10:04:19;2.50;99.90
18456;DHT22;9357;49.900;8.208;2023-11-22T10:05:52;2.70;99.90
18456;DHT22;9357;49.900;8.208;2023-11-22T10:07:25;2.90;99.90